Gällivare Airport

METAR ESNG TAF ESNG
-24 °C
°C
-
°C
11m
Età
00:00:56
LT
23:00
UTC
0 ft

1.000

2.000

3.000

4.000

5.000

VFR
<?= Yii::t('app', 'Wind direction') ?> <?= Yii::t('app', 'of'); ?>
300°
08:36
Alba
76%
Umidità
Taglio del vento
Chiuso/Neve
Raggio visivo RWY
Condizione della RWY
Visibilità verticale
Visibilità minima
CAVOK
Tendenza
Correzione
Rapporto speciale
1025 hPa
QNH
METAR ESNG 032250Z AUTO 30005KT 250V320 9999 NCD M24/M27 Q1025
Cielo sereno
0 kt
0 kt
10 km+
Vista
No
Base nuvolosa
5 kt
Vento
metar-taf.com/ESNG

Metar-Taf.com

Decodificatore visivo

Noi e le terze parti seguiamo il tuo comportamento su internet con i cookie. Se continui, riteniamo che tu sia d'accordo con la nostra Politica sui cookie.